createdAt,value
2023-03-25T00:00:15.337Z,1.63
2023-03-25T00:02:45.224Z,1.93
2023-03-25T00:05:14.828Z,1.70
2023-03-25T00:07:43.104Z,1.83
2023-03-25T00:10:11.220Z,2.33
2023-03-25T00:12:38.718Z,2.13
2023-03-25T00:15:07.101Z,2.00
2023-03-25T00:17:36.870Z,2.03
2023-03-25T00:20:11.433Z,1.97
2023-03-25T00:22:44.245Z,1.70
2023-03-25T00:25:17.066Z,1.83
2023-03-25T00:27:46.370Z,2.00
2023-03-25T00:30:14.703Z,2.00
2023-03-25T00:32:46.147Z,1.97
2023-03-25T00:35:19.305Z,1.80
2023-03-25T00:37:48.136Z,1.77
2023-03-25T00:40:15.938Z,1.93
2023-03-25T00:42:44.952Z,1.90
2023-03-25T00:45:13.026Z,2.77
2023-03-25T00:47:41.557Z,1.87
2023-03-25T00:50:09.118Z,2.00
2023-03-25T00:52:36.542Z,1.93
2023-03-25T00:55:04.689Z,2.07
2023-03-25T00:57:32.123Z,2.33
2023-03-25T00:59:59.576Z,2.00
2023-03-25T01:02:28.264Z,1.90
2023-03-25T01:04:57.540Z,2.20
2023-03-25T01:07:24.895Z,2.13
2023-03-25T01:09:52.382Z,1.57
2023-03-25T01:12:20.272Z,1.67
2023-03-25T01:14:47.652Z,2.30
2023-03-25T01:17:15.675Z,2.13
2023-03-25T01:19:43.270Z,2.07
2023-03-25T01:22:11.202Z,2.37
2023-03-25T01:24:38.641Z,2.17
2023-03-25T01:27:06.121Z,2.83
2023-03-25T01:29:33.708Z,2.40
2023-03-25T01:32:01.236Z,3.07
2023-03-25T01:34:28.651Z,2.80
2023-03-25T01:36:56.064Z,2.50
2023-03-25T01:39:23.873Z,3.00
2023-03-25T01:41:51.702Z,3.10
2023-03-25T01:44:19.126Z,2.57
2023-03-25T01:46:49.523Z,3.47
2023-03-25T01:49:23.932Z,3.30
2023-03-25T01:51:54.078Z,3.00
2023-03-25T01:54:22.164Z,4.03
2023-03-25T01:56:50.811Z,3.20
2023-03-25T01:59:19.176Z,2.90
2023-03-25T02:01:49.692Z,3.10
2023-03-25T02:04:22.827Z,3.90
2023-03-25T02:06:52.892Z,3.73
2023-03-25T02:09:22.327Z,3.07
2023-03-25T02:11:50.371Z,3.73
2023-03-25T02:14:20.147Z,4.37
2023-03-25T02:16:47.587Z,4.87
2023-03-25T02:19:33.475Z,4.57
2023-03-25T02:22:20.883Z,4.37
2023-03-25T02:25:04.264Z,4.70
2023-03-25T02:27:45.982Z,4.73
2023-03-25T02:30:26.978Z,4.07
2023-03-25T02:33:13.311Z,3.17
2023-03-25T02:35:53.444Z,3.30
2023-03-25T02:38:24.804Z,4.50
2023-03-25T02:40:57.536Z,3.27
2023-03-25T02:43:31.946Z,4.00
2023-03-25T02:46:01.699Z,4.00
2023-03-25T02:48:34.671Z,2.80
2023-03-25T02:51:05.943Z,3.03
2023-03-25T02:53:35.270Z,2.90
2023-03-25T02:56:04.233Z,2.90
2023-03-25T02:58:32.355Z,3.27
2023-03-25T03:00:59.922Z,2.67
2023-03-25T03:03:28.232Z,2.40
2023-03-25T03:06:00.579Z,2.40
2023-03-25T03:08:43.435Z,2.20
2023-03-25T03:11:23.705Z,3.17
2023-03-25T03:14:03.008Z,2.13
2023-03-25T03:16:50.088Z,3.40
2023-03-25T03:19:40.052Z,3.20
2023-03-25T03:22:08.530Z,2.53
2023-03-25T03:24:38.218Z,2.60
2023-03-25T03:27:25.755Z,2.40
2023-03-25T03:29:56.477Z,2.40
2023-03-25T03:32:29.497Z,2.80
2023-03-25T03:34:59.610Z,2.70
2023-03-25T03:37:31.218Z,3.27
2023-03-25T03:39:58.711Z,3.27
2023-03-25T03:42:38.243Z,2.33
2023-03-25T03:45:17.907Z,2.50
2023-03-25T03:47:49.098Z,2.60
2023-03-25T03:50:21.759Z,3.00
2023-03-25T03:53:03.124Z,2.57
2023-03-25T03:55:37.894Z,2.87
2023-03-25T03:58:09.602Z,2.90
2023-03-25T04:00:42.019Z,3.27
2023-03-25T04:03:24.574Z,3.47
2023-03-25T04:05:54.861Z,3.70
2023-03-25T04:08:28.942Z,4.13
2023-03-25T04:10:59.069Z,3.73
2023-03-25T04:13:29.381Z,4.00
2023-03-25T04:16:00.171Z,2.93
2023-03-25T04:18:28.674Z,2.53
2023-03-25T04:20:56.804Z,2.80
2023-03-25T04:23:24.131Z,2.53
2023-03-25T04:25:53.495Z,2.70
2023-03-25T04:28:21.677Z,3.63
2023-03-25T04:30:49.047Z,5.70
2023-03-25T04:33:17.783Z,3.63
2023-03-25T04:35:45.549Z,4.50
2023-03-25T04:38:12.921Z,4.60
2023-03-25T04:40:40.918Z,4.90
2023-03-25T04:43:08.464Z,6.47
2023-03-25T04:45:36.469Z,5.33
2023-03-25T04:48:06.350Z,6.60
2023-03-25T04:50:34.111Z,5.67
2023-03-25T04:53:01.523Z,4.23
2023-03-25T04:55:29.926Z,6.10
2023-03-25T04:57:57.337Z,5.77
2023-03-25T05:00:25.604Z,4.57
2023-03-25T05:02:54.422Z,4.40
2023-03-25T05:05:23.311Z,3.73
2023-03-25T05:07:52.181Z,4.03
2023-03-25T05:10:20.951Z,3.70
2023-03-25T05:12:48.920Z,3.10
2023-03-25T05:15:20.052Z,3.37
2023-03-25T05:17:47.395Z,3.27
2023-03-25T05:20:14.815Z,3.57
2023-03-25T05:22:43.223Z,4.03
2023-03-25T05:25:10.858Z,4.50
2023-03-25T05:27:39.082Z,2.80
2023-03-25T05:30:07.416Z,3.33
2023-03-25T05:32:35.086Z,4.20
2023-03-25T05:35:04.273Z,3.53
2023-03-25T05:37:31.797Z,3.07
2023-03-25T05:39:59.227Z,3.10
2023-03-25T05:42:26.688Z,2.97
2023-03-25T05:44:54.569Z,3.30
2023-03-25T05:47:23.510Z,2.73
2023-03-25T05:49:52.079Z,3.30
2023-03-25T05:52:20.342Z,3.80
2023-03-25T05:54:51.857Z,3.10
2023-03-25T05:57:19.425Z,3.40
2023-03-25T05:59:48.029Z,4.13
2023-03-25T06:02:17.160Z,3.40
2023-03-25T06:04:46.595Z,3.70
2023-03-25T06:07:19.754Z,4.07
2023-03-25T06:09:47.841Z,3.43
2023-03-25T06:12:16.726Z,3.63
2023-03-25T06:14:45.493Z,4.20
2023-03-25T06:17:16.400Z,4.17
2023-03-25T06:19:43.739Z,3.37
2023-03-25T06:22:11.907Z,4.63
2023-03-25T06:24:40.205Z,4.73
2023-03-25T06:27:08.765Z,4.10
2023-03-25T06:29:39.176Z,4.40
2023-03-25T06:32:06.623Z,4.93
2023-03-25T06:34:34.023Z,3.60
2023-03-25T06:37:02.219Z,3.60
2023-03-25T06:39:31.289Z,3.80
2023-03-25T06:42:00.928Z,4.43
2023-03-25T06:44:42.234Z,3.40
2023-03-25T06:47:37.337Z,3.73
2023-03-25T06:50:05.106Z,3.63
2023-03-25T06:52:32.468Z,3.97
2023-03-25T06:54:59.915Z,4.43
2023-03-25T06:57:27.358Z,4.63
2023-03-25T06:59:54.739Z,4.20
2023-03-25T07:02:22.102Z,4.93
2023-03-25T07:04:49.495Z,4.53
2023-03-25T07:07:16.990Z,4.70
2023-03-25T07:09:44.342Z,4.30
2023-03-25T07:12:11.714Z,3.57
2023-03-25T07:14:39.078Z,3.80
2023-03-25T07:17:06.852Z,3.80
2023-03-25T07:19:34.435Z,3.60
2023-03-25T07:22:02.189Z,4.03
2023-03-25T07:24:29.526Z,3.23
2023-03-25T07:26:56.886Z,2.77
2023-03-25T07:29:28.820Z,2.77
2023-03-25T07:31:56.148Z,2.70
2023-03-25T07:34:23.822Z,3.60
2023-03-25T07:36:51.227Z,3.57
2023-03-25T07:39:18.839Z,2.60
2023-03-25T07:41:47.310Z,3.10
2023-03-25T07:44:28.900Z,3.57
2023-03-25T07:46:56.359Z,2.23
2023-03-25T07:49:23.800Z,2.87
2023-03-25T07:51:51.173Z,3.53
2023-03-25T07:54:20.709Z,3.20
2023-03-25T07:56:48.131Z,1.97
2023-03-25T07:59:15.618Z,2.80
2023-03-25T08:01:43.046Z,2.80
2023-03-25T08:04:10.517Z,3.33
2023-03-25T08:06:38.352Z,3.20
2023-03-25T08:09:07.020Z,3.87
2023-03-25T08:11:34.629Z,3.80
2023-03-25T08:14:02.072Z,4.97
2023-03-25T08:16:29.747Z,3.73
2023-03-25T08:18:57.299Z,4.00
2023-03-25T08:21:27.954Z,3.83
2023-03-25T08:23:58.550Z,3.90
2023-03-25T08:26:27.071Z,3.93
2023-03-25T08:28:57.633Z,4.27
2023-03-25T08:31:25.644Z,6.17
2023-03-25T08:33:53.570Z,4.77
2023-03-25T08:36:23.157Z,3.83
2023-03-25T08:38:50.987Z,4.13
2023-03-25T08:41:18.618Z,4.80
2023-03-25T08:43:46.095Z,3.60
2023-03-25T08:46:13.634Z,4.73
2023-03-25T08:48:41.108Z,4.87
2023-03-25T08:51:08.658Z,5.10
2023-03-25T08:53:36.017Z,3.93
2023-03-25T08:56:03.379Z,4.87
2023-03-25T08:58:30.724Z,5.27
2023-03-25T09:00:58.339Z,4.60
2023-03-25T09:03:27.418Z,4.30
2023-03-25T09:05:54.966Z,4.47
2023-03-25T09:08:22.777Z,4.23
2023-03-25T09:10:50.307Z,4.67
2023-03-25T09:13:17.643Z,3.40
2023-03-25T09:15:46.484Z,3.87
2023-03-25T09:18:14.015Z,4.37
2023-03-25T09:20:41.466Z,3.20
2023-03-25T09:23:09.824Z,4.17
2023-03-25T09:25:38.115Z,3.17
2023-03-25T09:28:05.532Z,3.13
2023-03-25T09:30:32.958Z,3.83
2023-03-25T09:33:01.197Z,3.27
2023-03-25T09:35:28.821Z,3.30
2023-03-25T09:37:56.411Z,3.57
2023-03-25T09:40:24.030Z,4.37
2023-03-25T09:43:10.174Z,3.20
2023-03-25T09:45:47.629Z,2.97
2023-03-25T09:48:15.040Z,3.77
2023-03-25T09:50:44.038Z,3.60
2023-03-25T09:53:11.385Z,3.40
2023-03-25T09:55:42.849Z,3.80
2023-03-25T09:58:16.401Z,4.20
2023-03-25T10:00:44.449Z,3.40
2023-03-25T10:03:27.057Z,4.37
2023-03-25T10:06:13.141Z,3.57
2023-03-25T10:08:43.215Z,4.63
2023-03-25T10:11:10.616Z,4.03
2023-03-25T10:13:41.941Z,2.97
2023-03-25T10:16:12.151Z,3.47
2023-03-25T10:18:46.264Z,3.33
2023-03-25T10:21:32.700Z,3.90
2023-03-25T10:24:13.767Z,4.17
2023-03-25T10:26:44.855Z,3.37
2023-03-25T10:29:14.382Z,3.60
2023-03-25T10:31:46.581Z,4.30
2023-03-25T10:34:17.671Z,4.10
2023-03-25T10:36:49.378Z,4.43
2023-03-25T10:39:21.613Z,3.43
2023-03-25T10:42:00.542Z,2.40
2023-03-25T10:44:28.991Z,3.40
2023-03-25T10:46:59.338Z,3.20
2023-03-25T10:49:29.084Z,3.20
2023-03-25T10:51:59.261Z,3.43
2023-03-25T10:54:29.107Z,2.40
2023-03-25T10:56:58.925Z,3.57
2023-03-25T10:59:35.963Z,3.23
2023-03-25T11:02:25.308Z,4.47
2023-03-25T11:04:55.670Z,3.03
2023-03-25T11:07:26.467Z,3.60
2023-03-25T11:09:54.012Z,3.97
2023-03-25T11:12:33.315Z,2.77
2023-03-25T11:15:14.179Z,3.03
2023-03-25T11:17:42.232Z,3.17
2023-03-25T11:20:17.669Z,2.67
2023-03-25T11:22:50.808Z,3.67
2023-03-25T11:25:26.680Z,2.90
2023-03-25T11:27:58.871Z,8.07
2023-03-25T11:30:26.756Z,3.23
2023-03-25T11:33:03.767Z,3.03
2023-03-25T11:35:34.356Z,3.53
2023-03-25T11:38:02.877Z,2.83
2023-03-25T11:40:32.856Z,2.97
2023-03-25T11:43:01.189Z,3.97
2023-03-25T11:45:35.185Z,3.10
2023-03-25T11:48:10.418Z,3.70
2023-03-25T11:50:37.992Z,2.60
2023-03-25T11:53:06.818Z,1.93
2023-03-25T11:55:42.444Z,2.90
2023-03-25T11:58:15.529Z,2.07
2023-03-25T12:00:46.972Z,2.00
2023-03-25T12:03:14.526Z,2.80
2023-03-25T12:05:43.147Z,2.97
2023-03-25T12:08:11.387Z,2.40
2023-03-25T12:10:41.962Z,2.33
2023-03-25T12:13:27.345Z,2.30
2023-03-25T12:16:06.896Z,2.57
2023-03-25T12:18:39.015Z,3.43
2023-03-25T12:21:16.480Z,1.83
2023-03-25T12:23:50.059Z,2.90
2023-03-25T12:26:19.452Z,2.00
2023-03-25T12:29:04.245Z,4.33
2023-03-25T12:31:32.190Z,2.23
2023-03-25T12:34:02.604Z,2.77
2023-03-25T12:36:38.966Z,2.53
2023-03-25T12:39:32.215Z,2.07
2023-03-25T12:42:13.341Z,2.47
2023-03-25T12:44:59.989Z,2.97
2023-03-25T12:47:40.571Z,3.00
2023-03-25T12:50:14.053Z,2.17
2023-03-25T12:52:52.983Z,3.47
2023-03-25T12:55:29.432Z,3.50
2023-03-25T12:57:56.843Z,3.60
2023-03-25T13:00:27.369Z,3.90
2023-03-25T13:03:12.545Z,5.30
2023-03-25T13:05:55.603Z,3.87
2023-03-25T13:08:26.294Z,4.57
2023-03-25T13:10:59.178Z,5.30
2023-03-25T13:13:27.473Z,3.53
2023-03-25T13:16:03.547Z,3.87
2023-03-25T13:18:30.993Z,3.43
2023-03-25T13:21:13.227Z,3.93
2023-03-25T13:23:42.380Z,3.20
2023-03-25T13:26:14.352Z,4.20
2023-03-25T13:28:46.824Z,3.17
2023-03-25T13:31:24.239Z,2.17
2023-03-25T13:33:54.857Z,2.13
2023-03-25T13:36:26.872Z,2.40
2023-03-25T13:38:58.762Z,1.90
2023-03-25T13:41:35.441Z,2.50
2023-03-25T13:44:06.384Z,2.33
2023-03-25T13:46:51.412Z,2.60
2023-03-25T13:49:22.004Z,2.50
2023-03-25T13:51:49.442Z,4.00
2023-03-25T13:54:40.379Z,2.57
2023-03-25T13:57:07.845Z,2.73
2023-03-25T13:59:38.260Z,2.30
2023-03-25T14:02:25.451Z,2.53
2023-03-25T14:04:58.776Z,2.93
2023-03-25T14:07:45.053Z,2.60
2023-03-25T14:10:31.201Z,2.60
2023-03-25T14:13:05.956Z,2.13
2023-03-25T14:15:38.845Z,2.73
2023-03-25T14:18:06.760Z,2.50
2023-03-25T14:20:35.452Z,2.20
2023-03-25T14:23:04.800Z,2.63
2023-03-25T14:25:34.936Z,2.77
2023-03-25T14:28:04.548Z,2.07
2023-03-25T14:30:33.578Z,2.73
2023-03-25T14:33:04.183Z,1.67
2023-03-25T14:35:34.595Z,1.47
2023-03-25T14:38:08.768Z,1.67
2023-03-25T14:40:58.965Z,1.50
2023-03-25T14:43:36.973Z,1.60
2023-03-25T14:46:06.106Z,2.40
2023-03-25T14:48:37.533Z,2.83
2023-03-25T14:51:23.794Z,2.70
2023-03-25T14:54:11.534Z,3.80
2023-03-25T14:56:42.991Z,4.40
2023-03-25T14:59:13.450Z,3.80
2023-03-25T15:01:41.493Z,3.77
2023-03-25T15:04:11.822Z,4.80
2023-03-25T15:06:39.761Z,4.63
2023-03-25T15:09:09.864Z,3.37
2023-03-25T15:11:38.358Z,3.50
2023-03-25T15:14:08.696Z,2.37
2023-03-25T15:16:39.550Z,2.03
2023-03-25T15:19:08.491Z,2.23
2023-03-25T15:21:55.873Z,2.43
2023-03-25T15:24:30.578Z,2.53
2023-03-25T15:27:00.110Z,2.47
2023-03-25T15:29:27.986Z,2.50
2023-03-25T15:31:56.090Z,4.33
2023-03-25T15:34:28.453Z,2.70
2023-03-25T15:37:02.468Z,2.40
2023-03-25T15:39:39.698Z,2.27
2023-03-25T15:42:27.360Z,1.93
2023-03-25T15:45:07.059Z,1.47
2023-03-25T15:47:47.390Z,1.83
2023-03-25T15:50:21.398Z,1.83
2023-03-25T15:53:03.614Z,2.00
2023-03-25T15:55:34.482Z,1.47
2023-03-25T15:58:03.975Z,1.80
2023-03-25T16:00:47.218Z,1.90
2023-03-25T16:03:16.815Z,2.07
2023-03-25T16:05:52.679Z,1.53
2023-03-25T16:08:32.572Z,1.40
2023-03-25T16:11:15.779Z,2.23
2023-03-25T16:13:43.503Z,1.63
2023-03-25T16:16:12.482Z,1.73
2023-03-25T16:18:42.382Z,1.27
2023-03-25T16:21:10.217Z,3.30
2023-03-25T16:23:38.004Z,2.17
2023-03-25T16:26:06.100Z,1.43
2023-03-25T16:28:34.903Z,1.77
2023-03-25T16:31:02.973Z,2.37
2023-03-25T16:33:32.174Z,1.73
2023-03-25T16:36:00.886Z,2.43
2023-03-25T16:38:28.718Z,2.00
2023-03-25T16:41:08.931Z,1.43
2023-03-25T16:43:36.810Z,1.73
2023-03-25T16:46:05.174Z,1.40
2023-03-25T16:48:37.271Z,1.77
2023-03-25T16:51:11.922Z,1.20
2023-03-25T16:53:40.028Z,1.70
2023-03-25T16:56:10.643Z,1.37
2023-03-25T16:58:48.748Z,1.80
2023-03-25T17:01:16.326Z,1.50
2023-03-25T17:03:48.440Z,1.00
2023-03-25T17:06:22.746Z,1.30
2023-03-25T17:08:51.116Z,1.33
2023-03-25T17:11:18.587Z,1.87
2023-03-25T17:13:52.049Z,1.67
2023-03-25T17:16:20.910Z,1.43
2023-03-25T17:18:49.067Z,1.80
2023-03-25T17:21:22.932Z,1.87
2023-03-25T17:23:50.843Z,1.87
2023-03-25T17:26:22.382Z,2.20
2023-03-25T17:28:58.797Z,1.63
2023-03-25T17:31:27.745Z,1.77
2023-03-25T17:33:59.929Z,1.57
2023-03-25T17:36:27.759Z,1.60
2023-03-25T17:38:55.986Z,1.83
2023-03-25T17:41:27.951Z,1.93
2023-03-25T17:43:56.113Z,1.57
2023-03-25T17:46:24.885Z,1.90
2023-03-25T17:48:53.586Z,2.00
2023-03-25T17:51:21.657Z,1.30
2023-03-25T17:53:49.714Z,0.93
2023-03-25T17:56:19.749Z,1.40
2023-03-25T17:58:47.675Z,1.70
2023-03-25T18:01:15.539Z,1.30
2023-03-25T18:03:43.069Z,1.17
2023-03-25T18:06:12.478Z,1.73
2023-03-25T18:08:40.576Z,0.90
2023-03-25T18:11:09.468Z,1.10
2023-03-25T18:13:37.125Z,0.60
2023-03-25T18:16:05.464Z,1.37
2023-03-25T18:18:33.231Z,0.90
2023-03-25T18:21:03.716Z,1.60
2023-03-25T18:23:31.506Z,1.00
2023-03-25T18:26:00.003Z,3.90
2023-03-25T18:28:27.812Z,1.97
2023-03-25T18:30:56.662Z,1.10
2023-03-25T18:33:24.888Z,0.83
2023-03-25T18:35:52.929Z,1.47
2023-03-25T18:38:22.239Z,1.73
2023-03-25T18:40:50.058Z,1.53
2023-03-25T18:43:18.137Z,1.17
2023-03-25T18:45:46.555Z,1.37
2023-03-25T18:48:17.796Z,1.63
2023-03-25T18:50:50.425Z,1.47
2023-03-25T18:53:18.854Z,2.43
2023-03-25T18:55:46.627Z,2.30
2023-03-25T18:58:20.486Z,1.30
2023-03-25T19:00:49.136Z,1.50
2023-03-25T19:03:16.876Z,1.80
2023-03-25T19:05:44.929Z,1.10
2023-03-25T19:08:17.669Z,2.07
2023-03-25T19:10:46.064Z,1.33
2023-03-25T19:13:13.735Z,1.50
2023-03-25T19:15:42.971Z,1.47
2023-03-25T19:18:21.192Z,1.80
2023-03-25T19:20:50.126Z,1.97
2023-03-25T19:23:20.973Z,2.07
2023-03-25T19:25:49.709Z,1.73
2023-03-25T19:28:20.129Z,1.90
2023-03-25T19:30:49.063Z,1.63
2023-03-25T19:33:17.087Z,1.97
2023-03-25T19:35:50.060Z,2.20
2023-03-25T19:38:22.761Z,0.90
2023-03-25T19:40:51.991Z,1.67
2023-03-25T19:43:19.668Z,1.47
2023-03-25T19:45:47.129Z,1.40
2023-03-25T19:48:14.540Z,1.60
2023-03-25T19:50:42.875Z,1.13
2023-03-25T19:53:10.803Z,1.40
2023-03-25T19:55:38.257Z,1.80
2023-03-25T19:58:07.474Z,1.17
2023-03-25T20:00:35.219Z,1.10
2023-03-25T20:03:03.045Z,1.10
2023-03-25T20:05:31.928Z,1.50
2023-03-25T20:07:59.717Z,1.50
2023-03-25T20:10:30.400Z,1.90
2023-03-25T20:12:58.432Z,1.20
2023-03-25T20:15:26.465Z,2.37
2023-03-25T20:17:54.916Z,1.73
2023-03-25T20:20:23.296Z,1.50
2023-03-25T20:22:52.700Z,2.80
2023-03-25T20:25:20.503Z,2.53
2023-03-25T20:27:48.198Z,2.63
2023-03-25T20:30:17.392Z,1.70
2023-03-25T20:32:47.592Z,2.17
2023-03-25T20:35:16.293Z,2.10
2023-03-25T20:37:44.357Z,2.00
2023-03-25T20:40:13.713Z,1.93
2023-03-25T20:42:42.307Z,1.67
2023-03-25T20:45:11.061Z,1.90
2023-03-25T20:47:38.556Z,1.90
2023-03-25T20:50:06.502Z,1.73
2023-03-25T20:52:34.287Z,2.13
2023-03-25T20:55:02.075Z,1.60
2023-03-25T20:57:29.564Z,1.87
2023-03-25T20:59:58.014Z,2.00
2023-03-25T21:02:26.061Z,2.00
2023-03-25T21:04:56.791Z,2.10
2023-03-25T21:07:24.731Z,2.20
2023-03-25T21:09:52.686Z,2.10
2023-03-25T21:12:21.813Z,2.60
2023-03-25T21:14:52.423Z,2.30
2023-03-25T21:17:19.783Z,2.57
2023-03-25T21:19:47.287Z,2.30
2023-03-25T21:22:14.668Z,2.40
2023-03-25T21:24:42.254Z,2.60
2023-03-25T21:27:09.666Z,2.30
2023-03-25T21:29:37.330Z,3.40
2023-03-25T21:32:04.894Z,2.73
2023-03-25T21:34:32.258Z,2.57
2023-03-25T21:37:00.861Z,2.60
2023-03-25T21:39:28.365Z,2.57
2023-03-25T21:41:55.801Z,2.50
2023-03-25T21:44:23.303Z,2.13
2023-03-25T21:46:53.712Z,2.63
2023-03-25T21:49:22.306Z,2.60
2023-03-25T21:51:56.580Z,2.30
2023-03-25T21:54:24.498Z,3.80
2023-03-25T21:56:54.809Z,3.50
2023-03-25T21:59:22.697Z,2.40
2023-03-25T22:01:52.781Z,2.67
2023-03-25T22:04:20.524Z,2.93
2023-03-25T22:06:48.016Z,2.20
2023-03-25T22:09:15.353Z,3.13
2023-03-25T22:11:42.818Z,4.53
2023-03-25T22:14:10.501Z,2.73
2023-03-25T22:16:38.041Z,3.10
2023-03-25T22:19:05.774Z,3.00
2023-03-25T22:21:34.664Z,3.10
2023-03-25T22:24:02.953Z,3.00
2023-03-25T22:26:31.308Z,2.87
2023-03-25T22:29:01.218Z,2.73
2023-03-25T22:31:31.014Z,4.00
2023-03-25T22:34:03.820Z,3.50
2023-03-25T22:36:32.272Z,3.27
2023-03-25T22:39:00.005Z,3.57
2023-03-25T22:41:27.756Z,2.87
2023-03-25T22:43:55.897Z,4.70
2023-03-25T22:46:24.128Z,3.73
2023-03-25T22:48:51.846Z,3.47
2023-03-25T22:51:21.222Z,2.97
2023-03-25T22:53:48.572Z,2.77
2023-03-25T22:56:16.184Z,3.63
2023-03-25T22:58:43.623Z,4.33
2023-03-25T23:01:22.341Z,3.80
2023-03-25T23:03:49.888Z,3.47
2023-03-25T23:06:17.698Z,4.27
2023-03-25T23:08:45.133Z,4.03
2023-03-25T23:11:17.021Z,3.50
2023-03-25T23:13:46.627Z,3.73
2023-03-25T23:16:15.176Z,4.80
2023-03-25T23:18:42.846Z,3.97
2023-03-25T23:21:14.918Z,4.47
2023-03-25T23:23:52.698Z,4.80
2023-03-25T23:26:29.093Z,4.50
2023-03-25T23:29:00.437Z,4.33
2023-03-25T23:31:33.889Z,4.43
2023-03-25T23:34:03.182Z,4.87
2023-03-25T23:36:32.652Z,4.93
2023-03-25T23:39:00.670Z,5.23
2023-03-25T23:41:29.231Z,5.07
2023-03-25T23:43:56.666Z,4.80
2023-03-25T23:46:24.841Z,5.53
2023-03-25T23:49:01.853Z,5.63
2023-03-25T23:51:30.740Z,5.17
2023-03-25T23:53:58.083Z,4.93
2023-03-25T23:56:26.010Z,5.40
2023-03-25T23:58:53.701Z,5.23
